Terminal Aerodrome Forecast
Issued by NWS

Home | Current Version | Previous Version | Text Only | Print | Product List | Glossary On
Versions: 1 2 3 4 5 6 7 8 9 10 11 12 13 14 15 16 17 18 19 20 21
489
FTUS41 KPBZ 122005 AAA
TAFAGC
TAF AMD
KAGC 122005Z 1220/1318 31013G23KT 2SM -SHSN OVC015
      TEMPO 1220/1221 1/2SM SHSN OVC008
     FM122300 29013G28KT 5SM -SHSN OVC025
     FM130900 28013G23KT P6SM BKN050=

USA.gov is the U.S. government's official web portal to all federal, state and local government web resources and services.